createdAt,value
2023-05-19T00:01:28.507Z,15.45
2023-05-19T00:03:34.154Z,15.44
2023-05-19T00:05:46.448Z,15.43
2023-05-19T00:07:54.925Z,15.44
2023-05-19T00:10:00.571Z,15.42
2023-05-19T00:12:05.956Z,15.42
2023-05-19T00:14:14.652Z,15.40
2023-05-19T00:16:20.121Z,15.41
2023-05-19T00:18:25.232Z,15.40
2023-05-19T00:20:30.475Z,15.40
2023-05-19T00:22:37.128Z,15.41
2023-05-19T00:24:42.274Z,15.40
2023-05-19T00:26:47.149Z,15.39
2023-05-19T00:28:52.873Z,15.38
2023-05-19T00:31:01.405Z,15.37
2023-05-19T00:33:06.524Z,15.37
2023-05-19T00:35:12.837Z,15.36
2023-05-19T00:37:17.810Z,15.35
2023-05-19T00:39:22.956Z,15.33
2023-05-19T00:41:28.019Z,15.33
2023-05-19T00:43:34.567Z,15.32
2023-05-19T00:45:39.797Z,15.31
2023-05-19T00:47:49.124Z,15.28
2023-05-19T00:49:54.168Z,15.28
2023-05-19T00:51:59.337Z,15.27
2023-05-19T00:54:04.227Z,15.25
2023-05-19T00:56:09.490Z,15.26
2023-05-19T00:58:15.336Z,15.25
2023-05-19T01:00:20.989Z,15.24
2023-05-19T01:02:25.960Z,15.23
2023-05-19T01:04:35.150Z,15.19
2023-05-19T01:06:41.475Z,15.19
2023-05-19T01:08:46.744Z,15.17
2023-05-19T01:10:52.306Z,15.17
2023-05-19T01:12:57.294Z,15.16
2023-05-19T01:15:02.856Z,15.15
2023-05-19T01:17:14.560Z,15.14
2023-05-19T01:19:41.066Z,15.12
2023-05-19T01:22:15.844Z,15.11
2023-05-19T01:24:37.183Z,15.08
2023-05-19T01:27:12.919Z,15.07
2023-05-19T01:29:39.135Z,15.05
2023-05-19T01:31:49.170Z,15.04
2023-05-19T01:33:56.820Z,15.04
2023-05-19T01:36:03.482Z,15.05
2023-05-19T01:38:13.180Z,15.05
2023-05-19T01:40:18.845Z,15.05
2023-05-19T01:42:25.363Z,15.05
2023-05-19T01:44:30.841Z,15.06
2023-05-19T01:46:37.032Z,15.04
2023-05-19T01:48:45.646Z,15.03
2023-05-19T01:50:52.096Z,15.04
2023-05-19T01:52:57.442Z,15.02
2023-05-19T01:55:02.369Z,15.01
2023-05-19T01:57:15.850Z,15.00
2023-05-19T01:59:34.656Z,14.99
2023-05-19T02:01:51.671Z,14.98
2023-05-19T02:04:12.173Z,14.98
2023-05-19T02:06:26.374Z,14.97
2023-05-19T02:08:35.962Z,14.96
2023-05-19T02:10:45.777Z,14.97
2023-05-19T02:12:55.443Z,14.97
2023-05-19T02:15:07.254Z,14.95
2023-05-19T02:17:15.839Z,14.96
2023-05-19T02:19:28.100Z,14.95
2023-05-19T02:21:34.102Z,14.95
2023-05-19T02:23:39.034Z,14.94
2023-05-19T02:25:44.131Z,14.96
2023-05-19T02:27:49.624Z,14.97
2023-05-19T02:29:54.822Z,14.98
2023-05-19T02:31:59.667Z,14.98
2023-05-19T02:34:04.983Z,14.99
2023-05-19T02:36:14.724Z,14.98
2023-05-19T02:38:19.681Z,15.00
2023-05-19T02:40:25.393Z,15.00
2023-05-19T02:42:30.674Z,15.01
2023-05-19T02:44:35.829Z,15.03
2023-05-19T02:46:41.108Z,15.04
2023-05-19T02:48:46.118Z,15.04
2023-05-19T02:50:51.206Z,15.04
2023-05-19T02:52:58.697Z,15.04
2023-05-19T02:55:03.949Z,15.05
2023-05-19T02:57:09.840Z,15.05
2023-05-19T02:59:14.841Z,15.05
2023-05-19T03:01:21.580Z,15.05
2023-05-19T03:03:27.343Z,15.04
2023-05-19T03:05:33.057Z,15.04
2023-05-19T03:07:37.944Z,15.04
2023-05-19T03:09:45.740Z,15.03
2023-05-19T03:11:50.736Z,15.04
2023-05-19T03:13:55.725Z,15.03
2023-05-19T03:16:02.376Z,15.03
2023-05-19T03:18:09.197Z,15.03
2023-05-19T03:20:16.235Z,15.04
2023-05-19T03:22:21.828Z,15.03
2023-05-19T03:24:26.991Z,15.01
2023-05-19T03:26:34.626Z,15.01
2023-05-19T03:28:39.535Z,15.00
2023-05-19T03:30:44.651Z,15.00
2023-05-19T03:32:54.329Z,14.99
2023-05-19T03:34:59.526Z,14.97
2023-05-19T03:37:04.837Z,14.97
2023-05-19T03:39:10.239Z,14.97
2023-05-19T03:41:15.735Z,14.97
2023-05-19T03:43:23.555Z,14.96
2023-05-19T03:45:34.454Z,14.96
2023-05-19T03:47:59.615Z,14.94
2023-05-19T03:50:38.276Z,14.92
2023-05-19T03:52:53.807Z,14.90
2023-05-19T03:55:11.975Z,14.90
2023-05-19T03:57:17.983Z,14.90
2023-05-19T03:59:26.410Z,14.88
2023-05-19T04:01:31.614Z,14.89
2023-05-19T04:03:36.692Z,14.89
2023-05-19T04:05:42.452Z,14.89
2023-05-19T04:07:47.382Z,14.90
2023-05-19T04:09:52.662Z,14.89
2023-05-19T04:11:58.033Z,14.87
2023-05-19T04:14:03.032Z,14.87
2023-05-19T04:16:11.021Z,14.86
2023-05-19T04:18:15.919Z,14.86
2023-05-19T04:20:21.362Z,14.86
2023-05-19T04:22:26.596Z,14.85
2023-05-19T04:24:31.642Z,14.86
2023-05-19T04:26:38.631Z,14.86
2023-05-19T04:28:44.930Z,14.84
2023-05-19T04:30:50.777Z,14.87
2023-05-19T04:32:58.426Z,14.88
2023-05-19T04:35:04.228Z,14.89
2023-05-19T04:37:10.584Z,14.90
2023-05-19T04:39:17.221Z,14.89
2023-05-19T04:41:24.296Z,14.90
2023-05-19T04:43:29.431Z,14.91
2023-05-19T04:45:34.406Z,14.92
2023-05-19T04:47:42.057Z,14.92
2023-05-19T04:49:49.744Z,14.92
2023-05-19T04:51:56.803Z,14.94
2023-05-19T04:54:06.676Z,14.94
2023-05-19T04:56:15.488Z,14.94
2023-05-19T04:58:21.578Z,14.94
2023-05-19T05:00:27.217Z,14.95
2023-05-19T05:02:37.380Z,14.95
2023-05-19T05:04:44.414Z,14.97
2023-05-19T05:06:52.391Z,14.97
2023-05-19T05:08:57.582Z,14.97
2023-05-19T05:11:04.294Z,14.98
2023-05-19T05:13:11.866Z,14.99
2023-05-19T05:15:18.236Z,15.00
2023-05-19T05:17:28.494Z,15.01
2023-05-19T05:19:34.069Z,15.01
2023-05-19T05:21:40.135Z,15.02
2023-05-19T05:23:48.625Z,15.03
2023-05-19T05:25:54.336Z,15.05
2023-05-19T05:28:05.346Z,15.05
2023-05-19T05:30:12.758Z,15.05
2023-05-19T05:32:19.302Z,15.05
2023-05-19T05:34:24.285Z,15.05
2023-05-19T05:36:29.600Z,15.07
2023-05-19T05:38:35.256Z,15.07
2023-05-19T05:40:43.910Z,15.08
2023-05-19T05:42:48.982Z,15.10
2023-05-19T05:44:55.843Z,15.10
2023-05-19T05:47:01.412Z,15.13
2023-05-19T05:49:06.947Z,15.14
2023-05-19T05:51:12.957Z,15.16
2023-05-19T05:53:22.226Z,15.17
2023-05-19T05:55:31.961Z,15.18
2023-05-19T05:57:42.089Z,15.18
2023-05-19T05:59:48.206Z,15.21
2023-05-19T06:01:53.835Z,15.21
2023-05-19T06:03:59.174Z,15.23
2023-05-19T06:06:04.696Z,15.23
2023-05-19T06:08:09.673Z,15.23
2023-05-19T06:10:15.327Z,15.22
2023-05-19T06:12:20.216Z,15.24
2023-05-19T06:14:30.354Z,15.23
2023-05-19T06:17:01.607Z,15.22
2023-05-19T06:19:07.714Z,15.22
2023-05-19T06:21:13.891Z,15.24
2023-05-19T06:23:20.221Z,15.23
2023-05-19T06:25:26.024Z,15.25
2023-05-19T06:27:33.296Z,15.25
2023-05-19T06:29:42.588Z,15.26
2023-05-19T06:31:47.792Z,15.28
2023-05-19T06:33:55.254Z,15.28
2023-05-19T06:36:00.237Z,15.31
2023-05-19T06:38:05.060Z,15.32
2023-05-19T06:40:12.518Z,15.34
2023-05-19T06:42:22.314Z,15.35
2023-05-19T06:44:47.652Z,15.38
2023-05-19T06:46:54.041Z,15.40
2023-05-19T06:48:59.032Z,15.44
2023-05-19T06:51:05.229Z,15.47
2023-05-19T06:53:12.361Z,15.49
2023-05-19T06:55:17.677Z,15.52
2023-05-19T06:57:22.551Z,15.55
2023-05-19T06:59:27.583Z,15.56
2023-05-19T07:01:35.259Z,15.57
2023-05-19T07:03:41.576Z,15.58
2023-05-19T07:05:47.642Z,15.56
2023-05-19T07:07:52.886Z,15.57
2023-05-19T07:10:01.926Z,15.58
2023-05-19T07:12:09.338Z,15.59
2023-05-19T07:14:14.241Z,15.60
2023-05-19T07:16:19.642Z,15.61
2023-05-19T07:18:27.509Z,15.60
2023-05-19T07:20:32.605Z,15.62
2023-05-19T07:22:38.759Z,15.63
2023-05-19T07:24:44.577Z,15.66
2023-05-19T07:26:49.514Z,15.67
2023-05-19T07:28:54.854Z,15.69
2023-05-19T07:30:59.972Z,15.71
2023-05-19T07:33:04.885Z,15.71
2023-05-19T07:35:12.482Z,15.71
2023-05-19T07:37:17.552Z,15.74
2023-05-19T07:39:22.591Z,15.74
2023-05-19T07:41:27.668Z,15.76
2023-05-19T07:43:32.844Z,15.77
2023-05-19T07:45:37.744Z,15.78
2023-05-19T07:47:42.772Z,15.77
2023-05-19T07:49:49.680Z,15.79
2023-05-19T07:51:58.955Z,15.79
2023-05-19T07:54:03.967Z,15.80
2023-05-19T07:56:08.892Z,15.83
2023-05-19T07:58:13.823Z,15.85
2023-05-19T08:00:19.957Z,15.88
2023-05-19T08:02:24.947Z,15.88
2023-05-19T08:04:30.251Z,15.90
2023-05-19T08:06:35.448Z,15.92
2023-05-19T08:08:43.581Z,15.93
2023-05-19T08:10:49.100Z,15.95
2023-05-19T08:12:54.009Z,15.96
2023-05-19T08:15:01.321Z,15.98
2023-05-19T08:17:07.381Z,15.99
2023-05-19T08:19:12.942Z,16.00
2023-05-19T08:21:18.131Z,15.99
2023-05-19T08:23:23.134Z,16.01
2023-05-19T08:25:30.951Z,16.00
2023-05-19T08:27:36.506Z,16.01
2023-05-19T08:29:41.438Z,16.01
2023-05-19T08:31:46.422Z,16.00
2023-05-19T08:33:51.630Z,16.01
2023-05-19T08:35:58.264Z,16.01
2023-05-19T08:38:03.242Z,16.00
2023-05-19T08:40:09.332Z,16.01
2023-05-19T08:42:17.131Z,16.00
2023-05-19T08:44:22.361Z,16.01
2023-05-19T08:46:28.673Z,15.99
2023-05-19T08:48:34.083Z,15.98
2023-05-19T08:50:44.369Z,15.94
2023-05-19T08:52:57.990Z,15.92
2023-05-19T08:55:07.585Z,15.93
2023-05-19T08:57:12.688Z,15.92
2023-05-19T08:59:21.833Z,15.92
2023-05-19T09:01:27.291Z,15.91
2023-05-19T09:03:33.042Z,15.92
2023-05-19T09:05:38.281Z,15.92
2023-05-19T09:07:43.575Z,15.91
2023-05-19T09:09:49.075Z,15.93
2023-05-19T09:11:53.926Z,15.93
2023-05-19T09:13:59.025Z,15.96
2023-05-19T09:16:06.959Z,15.96
2023-05-19T09:18:13.066Z,16.00
2023-05-19T09:20:20.203Z,16.02
2023-05-19T09:22:25.592Z,16.04
2023-05-19T09:24:31.871Z,16.05
2023-05-19T09:26:41.408Z,16.08
2023-05-19T09:28:46.279Z,16.10
2023-05-19T09:30:51.131Z,16.13
2023-05-19T09:32:59.495Z,16.13
2023-05-19T09:35:05.864Z,16.15
2023-05-19T09:37:10.950Z,16.16
2023-05-19T09:39:19.856Z,16.15
2023-05-19T09:41:25.204Z,16.13
2023-05-19T09:43:32.136Z,16.14
2023-05-19T09:45:37.352Z,16.13
2023-05-19T09:47:44.115Z,16.14
2023-05-19T09:49:52.792Z,16.13
2023-05-19T09:51:58.747Z,16.14
2023-05-19T09:54:04.619Z,16.12
2023-05-19T09:56:12.582Z,16.14
2023-05-19T09:58:20.697Z,16.14
2023-05-19T10:00:26.826Z,16.15
2023-05-19T10:02:33.380Z,16.16
2023-05-19T10:04:39.219Z,16.17
2023-05-19T10:06:47.701Z,16.20
2023-05-19T10:08:54.886Z,16.23
2023-05-19T10:11:00.835Z,16.23
2023-05-19T10:13:07.012Z,16.23
2023-05-19T10:15:14.379Z,16.26
2023-05-19T10:17:19.445Z,16.26
2023-05-19T10:19:25.974Z,16.29
2023-05-19T10:21:31.260Z,16.30
2023-05-19T10:23:39.174Z,16.33
2023-05-19T10:25:45.223Z,16.35
2023-05-19T10:27:57.139Z,16.38
2023-05-19T10:30:05.479Z,16.39
2023-05-19T10:32:15.437Z,16.40
2023-05-19T10:34:40.800Z,16.41
2023-05-19T10:36:52.578Z,16.39
2023-05-19T10:39:08.190Z,16.40
2023-05-19T10:41:19.832Z,16.40
2023-05-19T10:43:33.985Z,16.39
2023-05-19T10:45:49.025Z,16.39
2023-05-19T10:47:54.748Z,16.39
2023-05-19T10:50:03.254Z,16.40
2023-05-19T10:52:22.321Z,16.40
2023-05-19T10:54:45.436Z,16.40
2023-05-19T10:56:50.289Z,16.42
2023-05-19T10:58:55.527Z,16.46
2023-05-19T11:01:03.897Z,16.48
2023-05-19T11:03:18.889Z,16.53
2023-05-19T11:05:32.280Z,16.60
2023-05-19T11:07:37.515Z,16.67
2023-05-19T11:09:46.233Z,16.78
2023-05-19T11:11:52.701Z,16.88
2023-05-19T11:13:58.920Z,16.99
2023-05-19T11:16:10.396Z,17.12
2023-05-19T11:18:18.236Z,17.22
2023-05-19T11:20:27.348Z,17.35
2023-05-19T11:22:32.253Z,17.47
2023-05-19T11:24:40.217Z,17.57
2023-05-19T11:26:48.825Z,17.65
2023-05-19T11:28:54.504Z,17.75
2023-05-19T11:31:02.498Z,17.85
2023-05-19T11:33:08.503Z,17.93
2023-05-19T11:35:13.552Z,18.01
2023-05-19T11:37:20.063Z,18.08
2023-05-19T11:39:24.868Z,18.16
2023-05-19T11:41:31.235Z,18.22
2023-05-19T11:43:38.980Z,18.27
2023-05-19T11:45:43.868Z,18.33
2023-05-19T11:48:01.128Z,18.36
2023-05-19T11:50:07.925Z,18.39
2023-05-19T11:52:12.864Z,18.43
2023-05-19T11:54:17.779Z,18.46
2023-05-19T11:56:22.739Z,18.50
2023-05-19T11:58:29.871Z,18.54
2023-05-19T12:00:40.355Z,18.55
2023-05-19T12:02:46.016Z,18.58
2023-05-19T12:04:51.539Z,18.59
2023-05-19T12:06:56.767Z,18.59
2023-05-19T12:09:01.780Z,18.59
2023-05-19T12:11:08.147Z,18.60
2023-05-19T12:13:13.424Z,18.62
2023-05-19T12:15:19.105Z,18.63
2023-05-19T12:17:26.805Z,18.66
2023-05-19T12:19:31.955Z,18.67
2023-05-19T12:21:37.537Z,18.71
2023-05-19T12:23:43.471Z,18.72
2023-05-19T12:25:48.647Z,18.75
2023-05-19T12:27:56.828Z,18.77
2023-05-19T12:30:02.959Z,18.76
2023-05-19T12:32:08.533Z,18.78
2023-05-19T12:34:19.357Z,18.76
2023-05-19T12:36:27.279Z,18.74
2023-05-19T12:38:32.254Z,18.74
2023-05-19T12:40:38.586Z,18.73
2023-05-19T12:42:48.903Z,18.73
2023-05-19T12:44:55.116Z,18.74
2023-05-19T12:47:00.744Z,18.73
2023-05-19T12:49:05.592Z,18.74
2023-05-19T12:51:13.115Z,18.72
2023-05-19T12:53:18.417Z,18.73
2023-05-19T12:55:23.796Z,18.72
2023-05-19T12:57:29.556Z,18.72
2023-05-19T12:59:38.640Z,18.70
2023-05-19T13:01:43.868Z,18.70
2023-05-19T13:03:49.143Z,18.70
2023-05-19T13:05:54.343Z,18.70
2023-05-19T13:08:04.879Z,18.69
2023-05-19T13:10:11.057Z,18.68
2023-05-19T13:12:15.943Z,18.68
2023-05-19T13:14:21.414Z,18.68
2023-05-19T13:16:26.602Z,18.69
2023-05-19T13:18:32.789Z,18.68
2023-05-19T13:20:38.110Z,18.69
2023-05-19T13:22:43.319Z,18.68
2023-05-19T13:24:53.440Z,18.67
2023-05-19T13:26:58.442Z,18.69
2023-05-19T13:29:03.592Z,18.69
2023-05-19T13:31:08.469Z,18.69
2023-05-19T13:33:13.442Z,18.70
2023-05-19T13:35:18.801Z,18.69
2023-05-19T13:37:23.688Z,18.70
2023-05-19T13:39:29.068Z,18.70
2023-05-19T13:41:38.618Z,18.69
2023-05-19T13:43:43.821Z,18.70
2023-05-19T13:45:48.977Z,18.71
2023-05-19T13:47:54.188Z,18.71
2023-05-19T13:49:59.169Z,18.73
2023-05-19T13:52:04.054Z,18.75
2023-05-19T13:54:09.356Z,18.77
2023-05-19T13:56:14.244Z,18.78
2023-05-19T13:58:22.651Z,18.79
2023-05-19T14:00:27.750Z,18.79
2023-05-19T14:02:33.217Z,18.82
2023-05-19T14:04:40.733Z,18.83
2023-05-19T14:06:45.600Z,18.86
2023-05-19T14:08:51.540Z,18.88
2023-05-19T14:10:58.294Z,18.89
2023-05-19T14:13:30.368Z,18.91
2023-05-19T14:15:35.326Z,18.91
2023-05-19T14:17:40.544Z,18.94
2023-05-19T14:19:45.408Z,18.96
2023-05-19T14:21:50.291Z,19.00
2023-05-19T14:23:55.580Z,19.01
2023-05-19T14:26:00.565Z,19.04
2023-05-19T14:28:05.397Z,19.04
2023-05-19T14:30:11.936Z,19.07
2023-05-19T14:32:19.716Z,19.07
2023-05-19T14:34:24.912Z,19.08
2023-05-19T14:36:29.857Z,19.09
2023-05-19T14:38:34.842Z,19.11
2023-05-19T14:40:41.490Z,19.12
2023-05-19T14:42:46.539Z,19.14
2023-05-19T14:44:51.607Z,19.15
2023-05-19T14:46:56.450Z,19.15
2023-05-19T14:49:03.909Z,19.16
2023-05-19T14:51:08.825Z,19.16
2023-05-19T14:53:14.154Z,19.16
2023-05-19T14:55:19.278Z,19.16
2023-05-19T14:57:24.389Z,19.17
2023-05-19T14:59:29.904Z,19.17
2023-05-19T15:01:35.077Z,19.17
2023-05-19T15:03:40.627Z,19.17
2023-05-19T15:05:49.796Z,19.18
2023-05-19T15:07:54.876Z,19.19
2023-05-19T15:10:00.226Z,19.21
2023-05-19T15:12:05.668Z,19.22
2023-05-19T15:14:11.239Z,19.23
2023-05-19T15:16:18.280Z,19.24
2023-05-19T15:18:23.462Z,19.26
2023-05-19T15:20:29.594Z,19.27
2023-05-19T15:22:37.269Z,19.28
2023-05-19T15:24:42.229Z,19.29
2023-05-19T15:26:47.315Z,19.27
2023-05-19T15:28:52.348Z,19.28
2023-05-19T15:30:57.394Z,19.28
2023-05-19T15:33:02.558Z,19.28
2023-05-19T15:35:08.126Z,19.29
2023-05-19T15:37:13.037Z,19.28
2023-05-19T15:39:20.532Z,19.27
2023-05-19T15:41:25.976Z,19.27
2023-05-19T15:43:31.208Z,19.29
2023-05-19T15:45:39.300Z,19.29
2023-05-19T15:47:44.215Z,19.29
2023-05-19T15:49:49.264Z,19.30
2023-05-19T15:51:54.101Z,19.31
2023-05-19T15:53:59.025Z,19.33
2023-05-19T15:56:07.426Z,19.33
2023-05-19T15:58:13.962Z,19.34
2023-05-19T16:00:19.262Z,19.36
2023-05-19T16:02:24.405Z,19.37
2023-05-19T16:04:29.259Z,19.36
2023-05-19T16:06:34.341Z,19.38
2023-05-19T16:08:39.222Z,19.38
2023-05-19T16:10:44.337Z,19.39
2023-05-19T16:12:52.096Z,19.38
2023-05-19T16:14:57.457Z,19.39
2023-05-19T16:17:02.299Z,19.40
2023-05-19T16:19:07.306Z,19.40
2023-05-19T16:21:12.581Z,19.39
2023-05-19T16:23:17.615Z,19.40
2023-05-19T16:25:23.122Z,19.41
2023-05-19T16:27:27.953Z,19.41
2023-05-19T16:29:35.684Z,19.42
2023-05-19T16:31:41.075Z,19.42
2023-05-19T16:33:46.421Z,19.42
2023-05-19T16:35:51.391Z,19.42
2023-05-19T16:37:56.303Z,19.41
2023-05-19T16:40:01.313Z,19.40
2023-05-19T16:42:06.355Z,19.41
2023-05-19T16:44:14.798Z,19.40
2023-05-19T16:46:22.272Z,19.38
2023-05-19T16:48:27.264Z,19.38
2023-05-19T16:50:32.541Z,19.38
2023-05-19T16:52:37.450Z,19.38
2023-05-19T16:54:42.564Z,19.39
2023-05-19T16:56:47.814Z,19.39
2023-05-19T16:58:54.112Z,19.40
2023-05-19T17:00:59.109Z,19.41
2023-05-19T17:03:07.076Z,19.41
2023-05-19T17:05:12.359Z,19.42
2023-05-19T17:07:17.940Z,19.43
2023-05-19T17:09:26.156Z,19.43
2023-05-19T17:11:30.952Z,19.43
2023-05-19T17:13:36.839Z,19.43
2023-05-19T17:15:43.242Z,19.44
2023-05-19T17:17:48.407Z,19.45
2023-05-19T17:19:55.977Z,19.44
2023-05-19T17:22:00.823Z,19.44
2023-05-19T17:24:05.610Z,19.45
2023-05-19T17:26:10.584Z,19.45
2023-05-19T17:28:15.357Z,19.46
2023-05-19T17:30:20.138Z,19.46
2023-05-19T17:32:28.478Z,19.46
2023-05-19T17:34:33.447Z,19.46
2023-05-19T17:36:40.930Z,19.45
2023-05-19T17:38:45.824Z,19.45
2023-05-19T17:40:50.690Z,19.45
2023-05-19T17:42:55.537Z,19.45
2023-05-19T17:45:00.330Z,19.45
2023-05-19T17:47:07.397Z,19.45
2023-05-19T17:49:14.057Z,19.45
2023-05-19T17:51:19.290Z,19.45
2023-05-19T17:53:27.307Z,19.44
2023-05-19T17:55:33.216Z,19.45
2023-05-19T17:57:39.261Z,19.43
2023-05-19T17:59:45.099Z,19.44
2023-05-19T18:01:50.420Z,19.43
2023-05-19T18:03:56.196Z,19.44
2023-05-19T18:06:03.557Z,19.43
2023-05-19T18:08:09.904Z,19.43
2023-05-19T18:10:18.320Z,19.42
2023-05-19T18:12:23.460Z,19.41
2023-05-19T18:14:28.304Z,19.40
2023-05-19T18:16:33.179Z,19.41
2023-05-19T18:18:40.292Z,19.39
2023-05-19T18:20:45.905Z,19.39
2023-05-19T18:22:50.662Z,19.39
2023-05-19T18:24:55.549Z,19.38
2023-05-19T18:27:03.434Z,19.38
2023-05-19T18:29:08.250Z,19.36
2023-05-19T18:31:17.601Z,19.35
2023-05-19T18:33:24.165Z,19.35
2023-05-19T18:35:30.296Z,19.35
2023-05-19T18:37:35.147Z,19.34
2023-05-19T18:39:40.361Z,19.33
2023-05-19T18:41:46.040Z,19.32
2023-05-19T18:43:53.627Z,19.31
2023-05-19T18:45:58.596Z,19.30
2023-05-19T18:48:03.471Z,19.29
2023-05-19T18:50:10.355Z,19.29
2023-05-19T18:52:15.256Z,19.29
2023-05-19T18:54:21.800Z,19.28
2023-05-19T18:56:27.001Z,19.28
2023-05-19T18:58:31.844Z,19.27
2023-05-19T19:00:40.610Z,19.26
2023-05-19T19:02:45.512Z,19.25
2023-05-19T19:04:50.391Z,19.24
2023-05-19T19:06:55.346Z,19.23
2023-05-19T19:09:00.224Z,19.23
2023-05-19T19:11:09.407Z,19.23
2023-05-19T19:13:14.114Z,19.21
2023-05-19T19:15:19.002Z,19.19
2023-05-19T19:17:26.868Z,19.19
2023-05-19T19:19:32.171Z,19.18
2023-05-19T19:21:37.028Z,19.17
2023-05-19T19:23:41.863Z,19.17
2023-05-19T19:25:46.597Z,19.18
2023-05-19T19:27:51.418Z,19.15
2023-05-19T19:29:56.475Z,19.15
2023-05-19T19:32:01.482Z,19.14
2023-05-19T19:34:09.630Z,19.13
2023-05-19T19:36:14.417Z,19.13
2023-05-19T19:38:19.197Z,19.12
2023-05-19T19:40:25.124Z,19.11
2023-05-19T19:42:30.474Z,19.10
2023-05-19T19:44:35.253Z,19.10
2023-05-19T19:46:40.098Z,19.10
2023-05-19T19:48:44.933Z,19.09
2023-05-19T19:50:56.790Z,19.08
2023-05-19T19:53:01.854Z,19.08
2023-05-19T19:55:07.489Z,19.08
2023-05-19T19:57:12.412Z,19.06
2023-05-19T19:59:17.170Z,19.04
2023-05-19T20:01:23.887Z,19.04
2023-05-19T20:03:29.628Z,19.03
2023-05-19T20:05:34.815Z,19.02
2023-05-19T20:07:42.218Z,19.00
2023-05-19T20:09:47.060Z,19.00
2023-05-19T20:11:51.818Z,18.99
2023-05-19T20:13:56.662Z,18.99
2023-05-19T20:16:01.596Z,18.96
2023-05-19T20:18:06.529Z,18.95
2023-05-19T20:20:12.574Z,18.95
2023-05-19T20:22:17.417Z,18.93
2023-05-19T20:24:24.759Z,18.91
2023-05-19T20:26:29.567Z,18.92
2023-05-19T20:28:35.955Z,18.91
2023-05-19T20:30:41.271Z,18.90
2023-05-19T20:32:46.868Z,18.88
2023-05-19T20:34:51.847Z,18.86
2023-05-19T20:36:56.673Z,18.83
2023-05-19T20:39:01.583Z,18.81
2023-05-19T20:41:09.060Z,18.79
2023-05-19T20:43:13.875Z,18.79
2023-05-19T20:45:18.699Z,18.75
2023-05-19T20:47:23.878Z,18.74
2023-05-19T20:49:28.657Z,18.72
2023-05-19T20:51:33.464Z,18.71
2023-05-19T20:53:38.228Z,18.68
2023-05-19T20:55:43.476Z,18.65
2023-05-19T20:57:50.934Z,18.63
2023-05-19T20:59:55.705Z,18.62
2023-05-19T21:02:00.471Z,18.59
2023-05-19T21:04:07.954Z,18.57
2023-05-19T21:06:12.829Z,18.54
2023-05-19T21:08:17.809Z,18.52
2023-05-19T21:10:22.848Z,18.51
2023-05-19T21:12:34.285Z,18.48
2023-05-19T21:14:41.835Z,18.46
2023-05-19T21:16:46.710Z,18.44
2023-05-19T21:18:51.568Z,18.43
2023-05-19T21:20:56.417Z,18.41
2023-05-19T21:23:01.349Z,18.39
2023-05-19T21:25:06.331Z,18.37
2023-05-19T21:27:11.156Z,18.34
2023-05-19T21:29:15.983Z,18.33
2023-05-19T21:31:23.420Z,18.31
2023-05-19T21:33:28.593Z,18.29
2023-05-19T21:35:33.418Z,18.27
2023-05-19T21:37:38.452Z,18.24
2023-05-19T21:39:43.234Z,18.23
2023-05-19T21:41:48.124Z,18.21
2023-05-19T21:43:52.889Z,18.20
2023-05-19T21:45:57.814Z,18.18
2023-05-19T21:48:05.401Z,18.15
2023-05-19T21:50:15.762Z,18.14
2023-05-19T21:52:20.736Z,18.12
2023-05-19T21:54:25.572Z,18.10
2023-05-19T21:56:30.287Z,18.08
2023-05-19T21:58:35.043Z,18.07
2023-05-19T22:00:39.857Z,18.05
2023-05-19T22:02:45.005Z,18.04
2023-05-19T22:04:52.447Z,18.03
2023-05-19T22:06:57.270Z,18.02
2023-05-19T22:09:02.827Z,18.01
2023-05-19T22:11:08.484Z,17.98
2023-05-19T22:13:13.352Z,17.98
2023-05-19T22:15:18.212Z,17.93
2023-05-19T22:17:22.980Z,17.91
2023-05-19T22:19:27.920Z,17.89
2023-05-19T22:21:35.264Z,17.85
2023-05-19T22:23:40.091Z,17.84
2023-05-19T22:25:44.902Z,17.82
2023-05-19T22:27:49.781Z,17.79
2023-05-19T22:29:54.643Z,17.77
2023-05-19T22:31:59.533Z,17.75
2023-05-19T22:34:04.283Z,17.73
2023-05-19T22:36:11.193Z,17.71
2023-05-19T22:38:18.768Z,17.69
2023-05-19T22:40:23.634Z,17.69
2023-05-19T22:42:28.818Z,17.68
2023-05-19T22:44:33.780Z,17.66
2023-05-19T22:46:38.604Z,17.65
2023-05-19T22:48:43.405Z,17.64
2023-05-19T22:50:48.336Z,17.61
2023-05-19T22:52:53.363Z,17.60
2023-05-19T22:55:00.779Z,17.58
2023-05-19T22:57:06.708Z,17.55
2023-05-19T22:59:11.544Z,17.53
2023-05-19T23:01:17.335Z,17.51
2023-05-19T23:03:22.282Z,17.48
2023-05-19T23:05:27.217Z,17.45
2023-05-19T23:07:32.146Z,17.43
2023-05-19T23:09:36.993Z,17.41
2023-05-19T23:11:44.401Z,17.37
2023-05-19T23:13:49.228Z,17.36
2023-05-19T23:15:54.013Z,17.34
2023-05-19T23:17:59.070Z,17.33
2023-05-19T23:20:03.900Z,17.32
2023-05-19T23:22:09.758Z,17.29
2023-05-19T23:24:15.843Z,17.27
2023-05-19T23:26:21.572Z,17.27
2023-05-19T23:28:29.030Z,17.25
2023-05-19T23:30:33.837Z,17.24
2023-05-19T23:32:38.643Z,17.23
2023-05-19T23:34:43.480Z,17.21
2023-05-19T23:36:48.261Z,17.19
2023-05-19T23:38:53.015Z,17.17
2023-05-19T23:40:57.832Z,17.15
2023-05-19T23:43:02.797Z,17.11
2023-05-19T23:45:11.476Z,17.06
2023-05-19T23:47:16.249Z,17.04
2023-05-19T23:49:21.120Z,17.02
2023-05-19T23:51:26.083Z,16.99
2023-05-19T23:53:30.914Z,16.96
2023-05-19T23:55:36.008Z,16.94
2023-05-19T23:57:40.952Z,16.91
2023-05-19T23:59:45.970Z,16.89
